createdAt,value
2022-08-04T05:16:13.444Z,19.90
2022-08-04T05:21:45.306Z,16.30
2022-08-04T05:27:40.036Z,18.70
2022-08-04T05:33:14.204Z,15.40
2022-08-04T05:50:26.060Z,14.00
2022-08-04T05:56:00.241Z,14.20
2022-08-04T06:01:56.275Z,13.60
2022-08-04T06:07:20.924Z,14.90
2022-08-04T06:13:02.866Z,15.00
2022-08-04T06:20:00.790Z,15.70
2022-08-04T06:24:33.862Z,19.00
2022-08-04T06:30:00.190Z,15.20
2022-08-04T06:35:25.102Z,14.70
2022-08-04T06:40:47.393Z,13.50
2022-08-04T06:46:10.996Z,14.50
2022-08-04T06:51:42.418Z,13.30
2022-08-04T06:57:14.290Z,10.90
2022-08-04T07:02:43.243Z,12.80
2022-08-04T07:08:05.708Z,12.30
2022-08-04T07:13:31.604Z,10.80
2022-08-04T07:18:53.760Z,9.80
2022-08-04T07:24:16.983Z,10.70
2022-08-04T07:29:40.330Z,9.30
2022-08-04T07:35:04.527Z,9.00
2022-08-04T07:40:27.129Z,9.10
2022-08-04T07:45:49.655Z,9.60
2022-08-04T07:51:12.053Z,8.00
2022-08-04T07:56:40.146Z,7.10
2022-08-04T08:02:04.050Z,8.20
2022-08-04T08:07:26.047Z,7.80
2022-08-04T08:12:51.172Z,10.00
2022-08-04T08:18:14.547Z,7.20
2022-08-04T08:23:37.204Z,8.10
2022-08-04T08:28:59.662Z,8.00
2022-08-04T08:34:27.965Z,7.90
2022-08-04T08:40:09.309Z,8.60
2022-08-04T08:45:40.866Z,8.50
2022-08-04T08:51:03.093Z,7.60
2022-08-04T08:56:42.446Z,9.40
2022-08-04T09:02:20.466Z,6.80
2022-08-04T09:08:01.603Z,7.30
2022-08-04T09:13:52.578Z,6.40
2022-08-04T09:19:40.088Z,7.50
2022-08-04T09:25:26.782Z,6.40
2022-08-04T09:31:12.105Z,5.80
2022-08-04T09:37:00.803Z,7.70
2022-08-04T09:42:49.353Z,6.50
2022-08-04T09:49:03.180Z,6.20
2022-08-04T09:55:20.023Z,7.70
2022-08-04T10:00:48.740Z,4.80
2022-08-04T10:06:19.649Z,6.90
2022-08-04T10:12:14.036Z,5.70
2022-08-04T10:17:54.538Z,9.00
2022-08-04T10:23:56.010Z,7.50
2022-08-04T10:29:27.127Z,6.30
2022-08-04T10:35:13.530Z,9.90
2022-08-04T10:40:47.303Z,7.80
2022-08-04T10:46:17.739Z,7.40
2022-08-04T10:51:57.363Z,7.00
2022-08-04T10:57:37.606Z,5.40
2022-08-04T11:03:27.126Z,6.20
2022-08-04T11:08:54.253Z,6.90
2022-08-04T11:14:23.858Z,6.40
2022-08-04T11:20:18.123Z,8.10
2022-08-04T11:26:13.270Z,7.00
2022-08-04T11:31:51.227Z,6.40
2022-08-04T11:37:22.255Z,6.10
2022-08-04T11:42:56.125Z,7.20
2022-08-04T11:53:47.598Z,7.50
2022-08-04T11:59:30.367Z,5.90
2022-08-04T12:05:36.035Z,6.20
2022-08-04T12:11:15.272Z,7.30
2022-08-04T12:17:02.196Z,6.50
2022-08-04T12:22:28.355Z,6.20
2022-08-04T12:28:18.895Z,5.50
2022-08-04T12:34:04.245Z,6.10
2022-08-04T12:40:21.370Z,5.60
2022-08-04T12:45:36.180Z,5.70
2022-08-04T12:51:00.299Z,5.90
2022-08-04T12:56:41.787Z,7.50
2022-08-04T13:02:06.929Z,8.80
2022-08-04T13:07:43.839Z,6.20
2022-08-04T13:13:29.704Z,6.60
2022-08-04T13:19:18.840Z,4.70
2022-08-04T13:32:00.806Z,6.10
2022-08-04T13:38:43.750Z,4.80
2022-08-04T13:45:34.727Z,5.50
2022-08-04T13:52:19.825Z,7.00
2022-08-04T13:59:04.921Z,6.20
2022-08-04T14:05:59.540Z,5.70
2022-08-04T14:20:01.933Z,4.80
2022-08-04T14:26:48.828Z,6.00
2022-08-04T14:34:00.924Z,4.90
2022-08-04T14:40:38.471Z,7.10
2022-08-04T14:47:13.464Z,6.60
2022-08-04T14:53:43.701Z,5.10
2022-08-04T15:00:29.693Z,6.10
2022-08-04T15:07:12.901Z,7.70
2022-08-04T15:13:59.735Z,5.30
2022-08-04T15:20:42.904Z,4.60
2022-08-04T15:33:21.902Z,5.20
2022-08-04T15:45:07.341Z,5.20
2022-08-04T15:51:38.127Z,4.80
2022-08-04T15:57:41.891Z,5.80
2022-08-04T16:03:57.793Z,4.70
2022-08-04T16:10:23.306Z,5.80
2022-08-04T16:16:45.794Z,5.90
2022-08-04T16:23:13.559Z,5.90
2022-08-04T16:29:51.780Z,5.40
2022-08-04T16:35:48.191Z,5.50
2022-08-04T16:42:00.940Z,6.60
2022-08-04T16:48:15.982Z,6.90
2022-08-04T16:54:58.335Z,7.10
2022-08-04T17:01:03.515Z,6.40
2022-08-04T17:07:07.135Z,6.30
2022-08-04T17:14:03.272Z,6.80
2022-08-04T17:19:55.480Z,5.70
2022-08-04T17:25:51.788Z,5.00
2022-08-04T17:32:07.195Z,5.80
2022-08-04T17:38:34.256Z,8.10
2022-08-04T17:44:24.180Z,4.50
2022-08-04T17:50:12.852Z,8.60
2022-08-04T17:56:09.801Z,5.90
2022-08-04T18:02:08.886Z,6.90
2022-08-04T18:08:41.004Z,5.40
2022-08-04T18:15:25.597Z,5.90
2022-08-04T18:22:28.292Z,4.90
2022-08-04T18:29:31.071Z,6.20
2022-08-04T18:36:32.664Z,5.10
2022-08-04T18:47:19.380Z,6.20
2022-08-04T18:52:46.062Z,8.00
2022-08-04T18:58:26.757Z,6.00
2022-08-04T19:03:57.844Z,6.70
2022-08-04T19:09:21.868Z,5.80
2022-08-04T19:14:48.662Z,7.30
2022-08-04T19:20:24.224Z,7.40
2022-08-04T19:26:01.711Z,6.60
2022-08-04T19:31:34.386Z,7.30
2022-08-04T19:37:07.471Z,7.60
2022-08-04T19:42:40.664Z,7.50
2022-08-04T19:48:17.870Z,6.60
2022-08-04T19:53:44.783Z,6.50
2022-08-04T19:59:16.066Z,7.90
2022-08-04T20:04:38.638Z,7.70
2022-08-04T20:10:06.740Z,8.40
2022-08-04T20:15:30.033Z,7.20
2022-08-04T20:20:55.667Z,7.50
2022-08-04T20:26:17.799Z,5.90
2022-08-04T20:31:43.283Z,7.00
2022-08-04T20:37:06.569Z,7.60
2022-08-04T20:42:40.185Z,7.90
2022-08-04T20:48:10.416Z,7.50
2022-08-04T20:53:46.834Z,7.70
2022-08-04T21:00:00.000Z,7.70
2022-08-04T21:06:04.153Z,6.90
2022-08-04T21:12:50.029Z,7.10
2022-08-04T21:19:32.490Z,10.40
2022-08-04T21:25:03.923Z,7.70
2022-08-04T21:30:29.547Z,8.90
2022-08-04T21:37:09.991Z,9.20
2022-08-04T21:51:00.925Z,8.90
2022-08-04T22:03:52.644Z,11.80
2022-08-04T22:10:37.969Z,9.10
2022-08-04T22:17:04.377Z,10.30
2022-08-04T22:23:54.554Z,8.10
2022-08-04T22:30:48.330Z,8.90
2022-08-04T22:44:19.461Z,9.50
2022-08-04T22:51:06.959Z,9.60
2022-08-04T22:58:04.837Z,9.30
2022-08-04T23:11:13.938Z,8.30
2022-08-04T23:17:58.599Z,8.70
2022-08-04T23:24:21.823Z,8.30
2022-08-04T23:30:29.826Z,11.00
2022-08-04T23:36:33.670Z,8.30
2022-08-04T23:42:26.323Z,8.30
2022-08-04T23:48:56.603Z,9.20
2022-08-04T23:55:21.591Z,8.00
